Detall de PIREP

Printer-friendly versionPDF version

[2013/02/21 09:39:00]
Flight IATA:CT3404
Pilot Number:042
Company ICAO:CAT
Aircraft Type:MD11/E
PAX:156
Aircraft Registration:PAX
Departing Airport: LEBL
Destination Airport: GCLP
Alternate Airport:GCXO
Online: VATSIM
Route:LOTOS UM985 YES UM985 MGA UN869 RUSIK
Flight Level:F350
No Slew and time accel
No pause
Crash detect
Detect pilot in Cockpit between each 30 and 45 minutes
09:39 Zero fuel Weight: 377797 Lbs, Fuel Weight: 17398 Lbs
09:39 VATSIM:LEBL 210930Z 34006KT 280V360 6000 FEW016 BKN023 11/06 Q1009 NOSIG
09:39 VATSIM:GCLP 210930Z VRB01KT 9999 FEW025 BKN050 19/13 Q1022 NOSIG
09:39 VOICE CATALONIAN
09:49 Parking Brakes off
09:59 Take-off
09:59 Take off Weight: 547258 Lbs
09:59 Wind: 212º @ 004 Knots Heading: 244º
09:59 POS N41º 17´ 06´´ E002º 04´ 57´´
09:59 Gear Up: 177 Knots
09:59 Flaps:5 at 177 Knots
10:00 Flaps:4 at 169 Knots
10:00 Flaps:3 at 169 Knots
10:00 Flaps:2 at 168 Knots
10:00 Flaps:1 at 169 Knots
10:01 Flaps:0 at 223 Knots
10:14 Wind:311º@053 Knots Heading: 233º Ground Speed: 471 Knots Altitude 29222 ft
10:19 TOC
10:19 Fuel Weight: 156670 Lb
10:29 Wind:296º@076 Knots Heading: 240º Ground Speed: 439 Knots Altitude 34973 ft
10:44 Wind:285º@064 Knots Heading: 232º Ground Speed: 438 Knots Altitude 35062 ft
10:59 Wind:285º@064 Knots Heading: 219º Ground Speed: 450 Knots Altitude 35098 ft
11:14 Wind:297º@067 Knots Heading: 224º Ground Speed: 460 Knots Altitude 35137 ft
11:29 Wind:309º@058 Knots Heading: 221º Ground Speed: 475 Knots Altitude 35167 ft
11:44 Wind:310º@048 Knots Heading: 215º Ground Speed: 486 Knots Altitude 35232 ft
11:59 Wind:325º@036 Knots Heading: 249º Ground Speed: 468 Knots Altitude 35209 ft
12:14 Wind:330º@032 Knots Heading: 248º Ground Speed: 476 Knots Altitude 35219 ft
12:27 TOD
12:27 Fuel Weight: 120200 Lb
12:29 Wind:332º@031 Knots Heading: 219º Ground Speed: 506 Knots Altitude 31663 ft
12:41 Flaps:1 at 246 Knots
12:41 Flaps:2 at 249 Knots
12:41 Flaps:3 at 247 Knots
12:41 Flaps:4 at 245 Knots
12:44 Wind:334º@002 Knots Heading: 209º Ground Speed: 208 Knots Altitude 5777 ft
12:45 Flaps:5 at 190 Knots
12:45 Flaps:4 at 190 Knots
12:45 Flaps:5 at 191 Knots
12:45 Flaps:6 at 190 Knots
12:49 Gear Down: 192 Knots
12:49 Flaps:7 at 192 Knots
12:49 Flaps:6 at 192 Knots
12:49 Flaps:7 at 189 Knots
12:50 Flaps:8 at 174 Knots
12:50 Flaps:7 at 175 Knots
12:50 Flaps:8 at 174 Knots
12:52 TouchDown:Rate -136 ft/min Speed: 164 Knots
12:52 VATSIM:GCLP 211230Z 15007KT 060V180 9999 FEW030 BKN045 21/12 Q1022 NOSIG
12:52 Land
12:52 Wind:038º@013 Knots
12:52 Heading: 021º
12:52 Flight Duration: 02:53
12:52 Landing Weight: 492274 Lbs
12:52 POS N27º 55´ 57´´ W015º 23´ 10´´
12:55 Parking brakes on
12:55 Block to Block Duration: 03:06
12:55 Final Fuel: 114105 Lbls
12:55 Spent Fuel: 878610652 Lbls
12:55 Flight Length: 1248 NM
12:55 TOD Land Length: 128 NM

Exportar CSV

Powered by Drupal - Modified by Danger4k